createdAt,value
2019-03-13T00:02:23.694Z,1.60
2019-03-13T00:04:55.380Z,1.20
2019-03-13T00:07:27.151Z,1.27
2019-03-13T00:09:58.844Z,1.23
2019-03-13T00:12:30.503Z,0.80
2019-03-13T00:15:02.611Z,0.83
2019-03-13T00:17:34.279Z,1.10
2019-03-13T00:20:06.738Z,0.90
2019-03-13T00:22:38.395Z,1.70
2019-03-13T00:25:10.101Z,1.07
2019-03-13T00:27:41.851Z,1.00
2019-03-13T00:30:14.028Z,1.47
2019-03-13T00:32:45.683Z,1.20
2019-03-13T00:35:17.366Z,1.20
2019-03-13T00:37:49.032Z,1.27
2019-03-13T00:40:20.711Z,1.30
2019-03-13T00:42:52.371Z,1.00
2019-03-13T00:45:24.054Z,1.10
2019-03-13T00:47:55.736Z,1.47
2019-03-13T00:50:28.758Z,1.30
2019-03-13T00:53:00.416Z,1.20
2019-03-13T00:55:32.116Z,1.43
2019-03-13T00:58:03.776Z,1.00
2019-03-13T01:00:48.707Z,0.90
2019-03-13T01:03:38.488Z,1.07
2019-03-13T01:06:22.324Z,0.70
2019-03-13T01:08:54.018Z,0.97
2019-03-13T01:11:27.330Z,1.00
2019-03-13T01:13:59.243Z,1.10
2019-03-13T01:16:31.015Z,1.30
2019-03-13T01:19:02.780Z,1.10
2019-03-13T01:21:34.446Z,1.33
2019-03-13T01:24:06.103Z,1.23
2019-03-13T01:26:37.771Z,1.03
2019-03-13T01:29:09.431Z,1.30
2019-03-13T01:31:57.511Z,1.10
2019-03-13T01:34:32.595Z,1.20
2019-03-13T01:37:04.267Z,1.43
2019-03-13T01:39:35.938Z,1.00
2019-03-13T01:42:07.614Z,1.30
2019-03-13T01:44:40.681Z,1.00
2019-03-13T01:47:12.659Z,1.17
2019-03-13T01:49:44.310Z,1.50
2019-03-13T01:52:15.994Z,1.23
2019-03-13T01:54:47.659Z,1.57
2019-03-13T01:57:19.322Z,1.27
2019-03-13T01:59:51.279Z,1.17
2019-03-13T02:02:22.946Z,1.50
2019-03-13T02:04:54.812Z,1.50
2019-03-13T02:07:26.484Z,1.30
2019-03-13T02:09:58.147Z,1.33
2019-03-13T02:12:29.815Z,1.63
2019-03-13T02:15:01.484Z,1.47
2019-03-13T02:17:33.159Z,1.50
2019-03-13T02:20:05.247Z,2.10
2019-03-13T02:22:37.037Z,1.50
2019-03-13T02:25:09.106Z,1.63
2019-03-13T02:27:40.791Z,1.40
2019-03-13T02:30:12.802Z,1.30
2019-03-13T02:32:44.480Z,1.50
2019-03-13T02:35:16.144Z,1.20
2019-03-13T02:37:48.013Z,1.30
2019-03-13T02:40:19.763Z,1.30
2019-03-13T02:42:51.431Z,1.20
2019-03-13T02:45:23.305Z,1.90
2019-03-13T02:47:55.004Z,1.17
2019-03-13T02:50:26.747Z,1.47
2019-03-13T02:52:58.573Z,0.90
2019-03-13T02:55:30.287Z,1.40
2019-03-13T02:58:01.974Z,1.10
2019-03-13T03:00:53.322Z,1.80
2019-03-13T03:03:31.156Z,1.43
2019-03-13T03:06:02.929Z,1.63
2019-03-13T03:08:34.616Z,1.00
2019-03-13T03:11:06.271Z,1.10
2019-03-13T03:13:37.951Z,0.87
2019-03-13T03:16:09.603Z,0.80
2019-03-13T03:18:41.275Z,0.87
2019-03-13T03:21:12.947Z,0.60
2019-03-13T03:23:45.448Z,0.60
2019-03-13T03:26:17.387Z,0.60
2019-03-13T03:28:49.190Z,0.50
2019-03-13T03:31:20.915Z,0.47
2019-03-13T03:34:00.554Z,0.40
2019-03-13T03:36:32.483Z,0.43
2019-03-13T03:39:05.205Z,0.50
2019-03-13T03:41:37.087Z,0.70
2019-03-13T03:44:08.929Z,0.60
2019-03-13T03:46:40.623Z,0.70
2019-03-13T03:49:12.387Z,0.80
2019-03-13T03:51:44.057Z,0.70
2019-03-13T03:54:15.827Z,0.70
2019-03-13T03:56:47.492Z,0.77
2019-03-13T03:59:19.181Z,1.00
2019-03-13T04:01:51.049Z,0.90
2019-03-13T04:04:22.922Z,1.00
2019-03-13T04:06:54.664Z,0.87
2019-03-13T04:09:26.551Z,1.07
2019-03-13T04:11:58.201Z,1.00
2019-03-13T04:14:29.892Z,1.17
2019-03-13T04:17:01.928Z,1.87
2019-03-13T04:19:33.613Z,1.50
2019-03-13T04:22:05.279Z,1.20
2019-03-13T04:24:36.948Z,1.60
2019-03-13T04:27:08.612Z,1.30
2019-03-13T04:29:40.526Z,1.83
2019-03-13T04:32:12.175Z,1.40
2019-03-13T04:34:43.859Z,1.53
2019-03-13T04:37:15.546Z,1.80
2019-03-13T04:39:47.299Z,1.73
2019-03-13T04:42:18.955Z,1.20
2019-03-13T04:44:50.667Z,1.50
2019-03-13T04:47:24.901Z,1.60
2019-03-13T04:49:55.899Z,1.40
2019-03-13T04:52:27.567Z,1.43
2019-03-13T04:54:59.239Z,1.20
2019-03-13T04:57:30.895Z,2.00
2019-03-13T05:00:02.981Z,1.30
2019-03-13T05:02:34.740Z,1.30
2019-03-13T05:05:06.693Z,1.20
2019-03-13T05:07:38.346Z,1.63
2019-03-13T05:10:10.015Z,1.90
2019-03-13T05:12:41.680Z,1.23
2019-03-13T05:15:13.376Z,1.60
2019-03-13T05:17:45.035Z,1.37
2019-03-13T05:20:16.715Z,1.50
2019-03-13T05:22:48.390Z,1.83
2019-03-13T05:25:20.088Z,1.50
2019-03-13T05:27:51.845Z,1.57
2019-03-13T05:30:23.636Z,1.63
2019-03-13T05:32:55.318Z,1.43
2019-03-13T05:35:27.007Z,1.30
2019-03-13T05:37:58.766Z,1.40
2019-03-13T05:40:30.443Z,1.40
2019-03-13T05:43:02.196Z,1.20
2019-03-13T05:45:33.893Z,1.10
2019-03-13T05:48:05.562Z,1.30
2019-03-13T05:50:37.245Z,1.37
2019-03-13T05:53:09.007Z,1.60
2019-03-13T05:55:40.699Z,1.40
2019-03-13T05:58:13.826Z,1.20
2019-03-13T06:00:45.647Z,1.10
2019-03-13T06:03:17.656Z,0.90
2019-03-13T06:05:49.474Z,1.17
2019-03-13T06:08:21.225Z,1.40
2019-03-13T06:10:52.918Z,1.03
2019-03-13T06:13:24.580Z,1.10
2019-03-13T06:15:56.267Z,1.10
2019-03-13T06:18:27.911Z,1.40
2019-03-13T06:20:59.605Z,0.80
2019-03-13T06:23:31.262Z,1.17
2019-03-13T06:26:02.967Z,1.13
2019-03-13T06:28:34.631Z,1.03
2019-03-13T06:31:06.306Z,1.43
2019-03-13T06:33:37.967Z,1.43
2019-03-13T06:36:09.643Z,1.37
2019-03-13T06:38:41.302Z,1.33
2019-03-13T06:41:13.065Z,1.30
2019-03-13T06:43:44.806Z,1.27
2019-03-13T06:46:16.479Z,1.20
2019-03-13T06:48:48.166Z,1.57
2019-03-13T06:51:19.830Z,1.60
2019-03-13T06:53:51.495Z,1.57
2019-03-13T06:56:23.198Z,1.37
2019-03-13T06:59:17.264Z,1.50
2019-03-13T07:01:57.634Z,1.73
2019-03-13T07:04:52.003Z,1.03
2019-03-13T07:07:42.335Z,1.33
2019-03-13T07:10:32.052Z,1.13
2019-03-13T07:13:32.322Z,1.20
2019-03-13T07:16:14.539Z,1.20
2019-03-13T07:18:56.702Z,2.40
2019-03-13T07:21:34.843Z,1.13
2019-03-13T07:24:22.051Z,1.83
2019-03-13T07:27:13.515Z,1.33
2019-03-13T07:30:04.879Z,1.67
2019-03-13T07:32:45.425Z,1.70
2019-03-13T07:35:45.681Z,1.60
2019-03-13T07:38:36.216Z,1.43
2019-03-13T07:41:35.526Z,1.50
2019-03-13T07:44:27.770Z,1.10
2019-03-13T07:47:17.790Z,1.90
2019-03-13T07:50:04.640Z,1.13
2019-03-13T07:52:50.304Z,1.67
2019-03-13T07:55:36.590Z,2.30
2019-03-13T07:58:22.333Z,1.33
2019-03-13T08:01:09.170Z,2.00
2019-03-13T08:03:55.855Z,1.20
2019-03-13T08:06:45.399Z,1.23
2019-03-13T08:09:37.118Z,1.30
2019-03-13T08:12:31.098Z,1.53
2019-03-13T08:15:16.139Z,1.20
2019-03-13T08:18:19.504Z,1.53
2019-03-13T08:21:10.863Z,1.50
2019-03-13T08:23:49.904Z,1.30
2019-03-13T08:26:39.447Z,1.03
2019-03-13T08:29:30.806Z,1.10
2019-03-13T08:32:40.169Z,1.50
2019-03-13T08:35:29.631Z,1.57
2019-03-13T08:38:12.073Z,1.10
2019-03-13T08:41:12.454Z,1.40
2019-03-13T08:43:59.008Z,1.47
2019-03-13T08:46:50.371Z,1.00
2019-03-13T08:49:38.691Z,1.00
2019-03-13T08:52:45.003Z,1.53
2019-03-13T08:55:32.488Z,1.30
2019-03-13T08:58:32.827Z,1.10
2019-03-13T09:01:23.079Z,1.30
2019-03-13T09:04:26.431Z,1.27
2019-03-13T09:07:16.222Z,1.50
2019-03-13T09:10:05.998Z,1.70
2019-03-13T09:12:53.612Z,1.17
2019-03-13T09:15:33.791Z,1.43
2019-03-13T09:18:37.180Z,1.07
2019-03-13T09:21:29.880Z,1.10
2019-03-13T09:24:09.412Z,1.20
2019-03-13T09:27:02.730Z,1.73
2019-03-13T09:29:52.394Z,1.33
2019-03-13T09:32:32.033Z,1.10
2019-03-13T09:35:22.347Z,1.97
2019-03-13T09:38:19.740Z,1.03
2019-03-13T09:41:29.198Z,1.20
2019-03-13T09:44:19.003Z,1.00
2019-03-13T09:47:15.947Z,1.33
2019-03-13T09:50:05.567Z,1.13
2019-03-13T09:53:02.904Z,1.30
2019-03-13T09:55:54.299Z,1.20
2019-03-13T09:58:44.303Z,1.10
2019-03-13T10:01:42.375Z,0.87
2019-03-13T10:04:45.721Z,1.10
2019-03-13T10:07:25.091Z,0.80
2019-03-13T10:10:34.408Z,1.40
2019-03-13T10:13:25.763Z,1.00
2019-03-13T10:16:04.612Z,1.63
2019-03-13T10:18:58.721Z,0.70
2019-03-13T10:21:46.895Z,1.03
2019-03-13T10:24:50.359Z,1.33
2019-03-13T10:27:29.188Z,1.50
2019-03-13T10:30:07.830Z,1.30
2019-03-13T10:32:59.211Z,1.00
2019-03-13T10:35:39.779Z,1.10
2019-03-13T10:38:28.471Z,0.90
2019-03-13T10:41:05.215Z,1.13
2019-03-13T10:43:49.027Z,1.10
2019-03-13T10:46:39.151Z,1.07
2019-03-13T10:49:30.526Z,1.03
2019-03-13T10:52:20.402Z,1.00
2019-03-13T10:55:07.159Z,1.50
2019-03-13T10:57:57.139Z,1.00
2019-03-13T11:00:39.561Z,1.00
2019-03-13T11:03:33.550Z,1.53
2019-03-13T11:06:15.555Z,1.07
2019-03-13T11:09:13.234Z,1.13
2019-03-13T11:11:58.628Z,0.90
2019-03-13T11:14:50.361Z,0.70
2019-03-13T11:17:56.431Z,0.67
2019-03-13T11:20:48.848Z,1.00
2019-03-13T11:23:35.927Z,1.17
2019-03-13T11:26:17.120Z,1.67
2019-03-13T11:29:11.451Z,1.37
2019-03-13T11:31:56.915Z,0.90
2019-03-13T11:34:44.879Z,1.30
2019-03-13T11:37:42.059Z,0.93
2019-03-13T11:40:22.091Z,1.00
2019-03-13T11:43:11.981Z,1.10
2019-03-13T11:45:52.529Z,1.00
2019-03-13T11:48:35.312Z,0.93
2019-03-13T11:51:26.103Z,1.17
2019-03-13T11:54:29.466Z,1.47
2019-03-13T11:57:13.334Z,1.00
2019-03-13T12:00:04.186Z,1.13
2019-03-13T12:02:43.367Z,1.10
2019-03-13T12:05:37.915Z,0.70
2019-03-13T12:08:25.727Z,1.20
2019-03-13T12:11:04.928Z,0.80
2019-03-13T12:14:05.091Z,1.00
2019-03-13T12:17:05.275Z,0.83
2019-03-13T12:19:42.265Z,1.13
2019-03-13T12:22:25.683Z,1.00
2019-03-13T12:25:15.234Z,1.17
2019-03-13T12:28:04.863Z,1.83
2019-03-13T12:30:54.349Z,1.27
2019-03-13T12:33:48.617Z,1.20
2019-03-13T12:36:41.986Z,1.20
2019-03-13T12:39:36.355Z,0.80
2019-03-13T12:42:26.045Z,1.27
2019-03-13T12:45:06.112Z,1.20
2019-03-13T12:47:44.895Z,1.17
2019-03-13T12:50:34.566Z,0.93
2019-03-13T12:53:13.812Z,1.20
2019-03-13T12:55:56.537Z,1.20
2019-03-13T12:58:37.884Z,0.87
2019-03-13T13:01:37.982Z,1.47
2019-03-13T13:04:16.247Z,1.43
2019-03-13T13:06:57.130Z,1.00
2019-03-13T13:09:46.879Z,1.20
2019-03-13T13:12:47.151Z,1.37
2019-03-13T13:15:37.215Z,7.93
2019-03-13T13:18:17.025Z,1.87
2019-03-13T13:20:48.694Z,1.00
2019-03-13T13:23:20.472Z,1.47
2019-03-13T13:25:52.153Z,1.20
2019-03-13T13:28:23.922Z,1.30
2019-03-13T13:30:55.582Z,2.03
2019-03-13T13:33:27.267Z,1.60
2019-03-13T13:35:58.959Z,1.13
2019-03-13T13:38:30.641Z,1.20
2019-03-13T13:41:02.399Z,1.37
2019-03-13T13:43:34.063Z,1.27
2019-03-13T13:46:23.310Z,1.23
2019-03-13T13:48:55.014Z,1.00
2019-03-13T13:51:26.855Z,0.80
2019-03-13T13:53:58.528Z,0.77
2019-03-13T13:56:30.194Z,1.10
2019-03-13T13:59:01.874Z,1.50
2019-03-13T14:01:33.536Z,0.97
2019-03-13T14:04:05.311Z,1.07
2019-03-13T14:06:36.975Z,0.93
2019-03-13T14:09:08.647Z,1.00
2019-03-13T14:11:40.403Z,1.20
2019-03-13T14:14:12.071Z,1.07
2019-03-13T14:16:43.730Z,0.90
2019-03-13T14:19:15.407Z,0.70
2019-03-13T14:21:47.103Z,0.57
2019-03-13T14:24:18.766Z,1.00
2019-03-13T14:26:50.436Z,1.30
2019-03-13T14:29:22.203Z,1.63
2019-03-13T14:31:53.903Z,0.97
2019-03-13T14:34:25.580Z,1.03
2019-03-13T14:36:57.238Z,1.10
2019-03-13T14:39:28.919Z,0.97
2019-03-13T14:42:00.585Z,1.27
2019-03-13T14:44:32.363Z,1.17
2019-03-13T14:47:04.103Z,1.03
2019-03-13T14:49:35.787Z,1.07
2019-03-13T14:52:07.451Z,1.33
2019-03-13T14:54:39.133Z,1.10
2019-03-13T14:57:10.784Z,1.50
2019-03-13T14:59:42.463Z,1.93
2019-03-13T15:02:14.465Z,0.97
2019-03-13T15:04:46.143Z,0.77
2019-03-13T15:07:17.793Z,0.53
2019-03-13T15:09:49.474Z,1.43
2019-03-13T15:12:21.137Z,0.87
2019-03-13T15:14:52.813Z,0.73
2019-03-13T15:17:24.507Z,1.33
2019-03-13T15:19:56.196Z,0.93
2019-03-13T15:22:28.658Z,1.00
2019-03-13T15:25:00.427Z,1.07
2019-03-13T15:27:32.288Z,0.90
2019-03-13T15:30:06.192Z,1.00
2019-03-13T15:32:37.883Z,1.03
2019-03-13T15:35:09.870Z,0.53
2019-03-13T15:37:41.547Z,1.00
2019-03-13T15:40:13.958Z,0.80
2019-03-13T15:42:46.119Z,1.00
2019-03-13T15:45:18.579Z,0.97
2019-03-13T15:47:50.370Z,1.17
2019-03-13T15:50:22.154Z,1.40
2019-03-13T15:52:53.819Z,1.03
2019-03-13T15:55:25.593Z,0.80
2019-03-13T15:57:57.255Z,1.30
2019-03-13T16:00:29.035Z,1.47
2019-03-13T16:03:00.709Z,0.80
2019-03-13T16:05:32.405Z,0.80
2019-03-13T16:08:04.083Z,1.30
2019-03-13T16:10:35.785Z,1.00
2019-03-13T16:13:07.540Z,1.23
2019-03-13T16:15:39.558Z,0.93
2019-03-13T16:18:11.215Z,0.77
2019-03-13T16:20:42.895Z,1.53
2019-03-13T16:23:17.039Z,1.00
2019-03-13T16:25:48.262Z,0.97
2019-03-13T16:28:19.938Z,1.07
2019-03-13T16:30:52.003Z,1.00
2019-03-13T16:33:23.671Z,0.90
2019-03-13T16:35:55.455Z,0.87
2019-03-13T16:38:27.114Z,1.23
2019-03-13T16:40:58.902Z,0.60
2019-03-13T16:43:30.583Z,0.60
2019-03-13T16:46:02.359Z,0.73
2019-03-13T16:48:34.034Z,1.70
2019-03-13T16:51:05.832Z,1.10
2019-03-13T16:53:37.599Z,1.20
2019-03-13T16:56:09.279Z,1.00
2019-03-13T16:58:40.943Z,1.20
2019-03-13T17:01:12.732Z,0.83
2019-03-13T17:03:44.388Z,1.33
2019-03-13T17:06:16.075Z,1.10
2019-03-13T17:08:47.739Z,0.83
2019-03-13T17:11:19.451Z,1.10
2019-03-13T17:13:51.115Z,0.70
2019-03-13T17:16:22.788Z,1.13
2019-03-13T17:18:54.455Z,1.50
2019-03-13T17:21:26.149Z,1.20
2019-03-13T17:23:57.851Z,0.97
2019-03-13T17:26:29.564Z,0.70
2019-03-13T17:29:01.223Z,0.90
2019-03-13T17:31:32.896Z,0.90
2019-03-13T17:34:04.794Z,1.40
2019-03-13T17:36:36.476Z,1.10
2019-03-13T17:39:08.143Z,1.20
2019-03-13T17:41:39.826Z,1.27
2019-03-13T17:44:11.515Z,0.90
2019-03-13T17:46:43.266Z,1.63
2019-03-13T17:49:14.957Z,1.20
2019-03-13T17:51:48.314Z,2.33
2019-03-13T17:54:20.220Z,1.47
2019-03-13T17:56:51.892Z,1.77
2019-03-13T17:59:23.552Z,2.10
2019-03-13T18:01:55.230Z,2.40
2019-03-13T18:04:26.911Z,1.73
2019-03-13T18:06:58.590Z,1.70
2019-03-13T18:09:30.255Z,1.90
2019-03-13T18:12:01.975Z,1.37
2019-03-13T18:14:33.643Z,1.50
2019-03-13T18:17:05.323Z,1.93
2019-03-13T18:19:36.979Z,1.90
2019-03-13T18:22:08.660Z,1.27
2019-03-13T18:24:40.427Z,1.03
2019-03-13T18:27:12.123Z,2.23
2019-03-13T18:29:43.801Z,1.83
2019-03-13T18:32:15.476Z,1.20
2019-03-13T18:34:47.140Z,1.93
2019-03-13T18:37:18.840Z,1.47
2019-03-13T18:39:50.512Z,1.43
2019-03-13T18:42:22.181Z,0.90
2019-03-13T18:44:53.832Z,1.40
2019-03-13T18:47:25.519Z,0.90
2019-03-13T18:49:57.219Z,1.30
2019-03-13T18:52:28.920Z,1.10
2019-03-13T18:55:00.591Z,0.77
2019-03-13T18:57:32.359Z,1.40
2019-03-13T19:00:05.988Z,1.27
2019-03-13T19:02:37.695Z,1.10
2019-03-13T19:05:10.179Z,1.73
2019-03-13T19:07:41.898Z,1.53
2019-03-13T19:10:13.824Z,1.50
2019-03-13T19:12:45.615Z,1.97
2019-03-13T19:15:19.624Z,1.80
2019-03-13T19:17:51.593Z,1.47
2019-03-13T19:20:23.476Z,1.10
2019-03-13T19:22:55.405Z,1.60
2019-03-13T19:25:27.312Z,1.50
2019-03-13T19:27:59.142Z,1.53
2019-03-13T19:30:30.952Z,1.33
2019-03-13T19:33:02.965Z,1.50
2019-03-13T19:35:34.647Z,1.40
2019-03-13T19:38:06.423Z,1.10
2019-03-13T19:40:38.363Z,1.10
2019-03-13T19:43:10.279Z,1.20
2019-03-13T19:45:42.201Z,1.37
2019-03-13T19:48:14.143Z,1.23
2019-03-13T19:50:45.881Z,1.43
2019-03-13T19:53:17.711Z,1.00
2019-03-13T19:55:49.773Z,1.07
2019-03-13T19:58:21.671Z,1.30
2019-03-13T20:00:53.856Z,1.23
2019-03-13T20:03:25.961Z,0.90
2019-03-13T20:05:58.147Z,1.33
2019-03-13T20:08:30.933Z,1.10
2019-03-13T20:11:03.285Z,1.20
2019-03-13T20:13:35.775Z,1.20
2019-03-13T20:16:08.104Z,0.90
2019-03-13T20:18:40.601Z,1.50
2019-03-13T20:21:13.251Z,1.97
2019-03-13T20:23:45.760Z,1.37
2019-03-13T20:26:18.626Z,1.07
2019-03-13T20:28:51.164Z,1.70
2019-03-13T20:31:23.923Z,1.17
2019-03-13T20:33:56.812Z,1.00
2019-03-13T20:36:29.247Z,0.90
2019-03-13T20:39:01.667Z,1.33
2019-03-13T20:41:34.201Z,0.70
2019-03-13T20:44:06.676Z,1.70
2019-03-13T20:46:39.067Z,1.53
2019-03-13T20:49:11.559Z,1.23
2019-03-13T20:51:43.869Z,1.53
2019-03-13T20:54:16.329Z,1.10
2019-03-13T20:56:48.319Z,1.30
2019-03-13T20:59:20.757Z,1.10
2019-03-13T21:01:52.882Z,1.20
2019-03-13T21:04:24.906Z,0.87
2019-03-13T21:06:56.777Z,1.07
2019-03-13T21:09:28.722Z,0.97
2019-03-13T21:12:00.589Z,1.27
2019-03-13T21:14:35.664Z,1.33
2019-03-13T21:17:06.319Z,1.33
2019-03-13T21:19:38.155Z,1.10
2019-03-13T21:22:09.851Z,1.63
2019-03-13T21:24:41.715Z,1.50
2019-03-13T21:27:13.428Z,1.70
2019-03-13T21:29:45.163Z,1.60
2019-03-13T21:32:16.993Z,1.70
2019-03-13T21:34:48.722Z,2.87
2019-03-13T21:37:20.459Z,2.70
2019-03-13T21:39:52.161Z,2.20
2019-03-13T21:42:23.820Z,2.53
2019-03-13T21:44:55.531Z,1.83
2019-03-13T21:47:27.215Z,2.00
2019-03-13T21:49:59.042Z,2.10
2019-03-13T21:52:30.719Z,2.90
2019-03-13T21:55:02.534Z,1.80
2019-03-13T21:57:34.220Z,2.10
2019-03-13T22:00:09.297Z,2.33
2019-03-13T22:02:40.953Z,2.70
2019-03-13T22:05:24.688Z,1.97
2019-03-13T22:07:46.215Z,2.83
2019-03-13T22:10:18.791Z,1.87
2019-03-13T22:12:51.181Z,2.90
2019-03-13T22:15:23.154Z,3.00
2019-03-13T22:17:55.020Z,2.83
2019-03-13T22:20:26.690Z,2.60
2019-03-13T22:22:58.370Z,2.27
2019-03-13T22:25:30.067Z,2.97
2019-03-13T22:28:01.764Z,2.77
2019-03-13T22:30:33.520Z,3.33
2019-03-13T22:33:05.185Z,3.10
2019-03-13T22:35:36.861Z,3.20
2019-03-13T22:38:08.540Z,3.10
2019-03-13T22:40:40.211Z,2.27
2019-03-13T22:43:11.866Z,2.33
2019-03-13T22:45:43.552Z,3.10
2019-03-13T22:48:15.253Z,3.33
2019-03-13T22:50:46.944Z,3.10
2019-03-13T22:53:18.723Z,3.67
2019-03-13T22:55:50.415Z,3.27
2019-03-13T22:58:24.532Z,3.17
2019-03-13T23:01:05.750Z,3.63
2019-03-13T23:03:40.401Z,2.77
2019-03-13T23:06:11.398Z,3.77
2019-03-13T23:08:43.130Z,3.50
2019-03-13T23:11:14.906Z,3.97
2019-03-13T23:13:46.562Z,3.73
2019-03-13T23:16:18.232Z,3.60
2019-03-13T23:18:49.894Z,3.20
2019-03-13T23:21:21.579Z,2.80
2019-03-13T23:23:53.246Z,2.57
2019-03-13T23:26:24.915Z,2.73
2019-03-13T23:28:56.808Z,2.80
2019-03-13T23:31:28.567Z,3.20
2019-03-13T23:34:00.260Z,2.93
2019-03-13T23:36:31.924Z,2.83
2019-03-13T23:39:05.219Z,1.80
2019-03-13T23:41:36.896Z,3.10
2019-03-13T23:44:08.556Z,2.60
2019-03-13T23:46:40.239Z,2.17
2019-03-13T23:49:11.895Z,2.20
2019-03-13T23:51:43.575Z,2.33
2019-03-13T23:54:15.231Z,2.10
2019-03-13T23:56:46.898Z,2.73
2019-03-13T23:59:18.636Z,2.80
